Time;durP1;ratioP1;P1;durP2;ratioP2;P2;SDS_P1;SDS_P2;PMS_P1;PMS_P2;Temp;Humidity;BMP_temperature;BMP_pressure;BME280_temperature;BME280_humidity;BME280_pressure;Samples;Min_cycle;Max_cycle;Signal;HPM_P1;HPM_P2
2022/03/19 00:02:24;;;;;;;19.90;6.43;;;6.50;99.90;;;;;;4990339;28;20184;-84
2022/03/19 00:05:16;;;;;;;13.57;6.60;;;6.50;99.90;;;;;;4989556;28;20190;-84
2022/03/19 00:08:35;;;;;;;14.43;6.77;;;6.40;99.90;;;;;;5013411;28;20169;-84
2022/03/19 00:11:03;;;;;;;17.30;6.93;;;6.30;99.90;;;;;;4974939;28;20192;-84
2022/03/19 00:13:31;;;;;;;18.40;7.53;;;6.30;99.90;;;;;;5000117;28;20205;-84
2022/03/19 00:15:57;;;;;;;20.23;7.30;;;6.30;99.90;;;;;;5013825;28;20183;-84
2022/03/19 00:18:27;;;;;;;18.53;7.60;;;6.20;99.90;;;;;;4991891;28;20689;-84
2022/03/19 00:20:54;;;;;;;19.47;7.80;;;6.20;99.90;;;;;;4993020;28;20249;-84
2022/03/19 00:23:25;;;;;;;21.07;8.17;;;6.30;99.90;;;;;;4997590;28;20266;-84
2022/03/19 00:25:51;;;;;;;21.23;7.73;;;6.30;99.90;;;;;;4997470;28;20181;-84
2022/03/19 00:28:18;;;;;;;19.13;7.87;;;6.30;99.90;;;;;;4997193;28;20184;-83
2022/03/19 00:30:53;;;;;;;24.03;9.03;;;6.30;99.90;;;;;;4984018;28;20220;-84
2022/03/19 00:33:24;;;;;;;17.73;7.97;;;6.30;99.90;;;;;;5006502;28;20199;-83
2022/03/19 00:35:51;;;;;;;15.20;7.23;;;6.20;99.90;;;;;;5000186;28;20242;-83
2022/03/19 00:38:17;;;;;;;17.53;7.30;;;6.10;99.90;;;;;;5012033;28;20235;-84
2022/03/19 00:40:43;;;;;;;17.80;7.60;;;6.40;99.90;;;;;;4980916;28;20189;-84
2022/03/19 00:43:09;;;;;;;20.37;7.13;;;6.50;99.90;;;;;;5005180;28;20188;-83
2022/03/19 00:45:35;;;;;;;15.03;6.73;;;6.40;99.90;;;;;;4978380;28;20174;-84
2022/03/19 00:48:01;;;;;;;14.60;5.90;;;6.30;99.90;;;;;;5013746;28;20194;-83
2022/03/19 00:50:27;;;;;;;17.57;6.03;;;6.30;99.90;;;;;;5000995;28;20185;-83
2022/03/19 00:52:55;;;;;;;14.27;6.33;;;6.20;99.90;;;;;;5015094;28;20201;-84
2022/03/19 00:55:21;;;;;;;21.30;6.90;;;6.10;99.90;;;;;;4969444;28;20188;-84
2022/03/19 00:57:48;;;;;;;18.93;6.27;;;6.00;99.90;;;;;;5004357;28;20195;-84
2022/03/19 01:00:24;;;;;;;13.23;5.20;;;6.00;99.90;;;;;;5001172;28;20277;-84
2022/03/19 01:02:51;;;;;;;17.43;5.60;;;6.00;99.90;;;;;;4985597;28;20200;-83
2022/03/19 01:05:17;;;;;;;12.13;5.17;;;5.90;99.90;;;;;;4996079;28;20177;-83
2022/03/19 01:07:58;;;;;;;15.17;5.40;;;5.80;99.90;;;;;;5007852;28;20171;-84
2022/03/19 01:10:27;;;;;;;15.37;5.03;;;5.80;99.90;;;;;;5009668;28;20182;-83
2022/03/19 01:12:54;;;;;;;12.77;4.67;;;5.80;99.90;;;;;;4980846;28;20203;-83
2022/03/19 01:15:21;;;;;;;11.13;4.47;;;5.70;99.90;;;;;;5012739;28;20572;-83
2022/03/19 01:17:51;;;;;;;16.60;4.90;;;5.80;99.90;;;;;;4992479;28;20206;-83
2022/03/19 01:20:17;;;;;;;14.43;5.07;;;5.70;99.90;;;;;;5000141;28;20534;-84
2022/03/19 01:22:51;;;;;;;12.17;4.50;;;5.80;99.90;;;;;;5010994;28;20199;-83
2022/03/19 01:25:19;;;;;;;14.63;4.63;;;5.70;99.90;;;;;;5007422;28;20168;-84
2022/03/19 01:27:49;;;;;;;12.53;4.40;;;5.60;99.90;;;;;;4977182;28;20169;-83
2022/03/19 01:30:17;;;;;;;14.70;4.43;;;5.70;99.90;;;;;;4993516;28;20527;-83
2022/03/19 01:32:43;;;;;;;15.83;3.93;;;5.80;99.90;;;;;;4980260;28;20251;-84
2022/03/19 01:35:10;;;;;;;12.50;4.23;;;5.80;99.90;;;;;;4995240;28;20179;-85
2022/03/19 01:37:37;;;;;;;13.57;3.90;;;5.80;99.90;;;;;;4996391;28;20586;-83
2022/03/19 01:40:19;;;;;;;12.33;4.27;;;5.70;99.90;;;;;;4984157;28;20179;-84
2022/03/19 01:43:00;;;;;;;12.57;4.00;;;5.70;99.90;;;;;;4996101;28;20639;-85
2022/03/19 01:45:31;;;;;;;14.70;4.47;;;5.60;99.90;;;;;;4996685;28;20270;-85
2022/03/19 01:47:57;;;;;;;14.63;3.87;;;5.60;99.90;;;;;;5016576;28;20250;-85
2022/03/19 01:50:26;;;;;;;16.47;3.80;;;5.60;99.90;;;;;;5015343;28;20184;-85
2022/03/19 01:53:21;;;;;;;14.70;4.30;;;5.50;99.90;;;;;;5001857;28;20671;-85
2022/03/19 01:55:53;;;;;;;16.60;4.33;;;5.40;99.90;;;;;;4974815;28;20580;-84
2022/03/19 01:58:24;;;;;;;13.80;4.23;;;5.50;99.90;;;;;;5019337;28;20195;-85
2022/03/19 02:00:57;;;;;;;12.27;4.33;;;5.50;99.90;;;;;;5000393;28;20214;-85
2022/03/19 02:06:01;;;;;;;14.73;3.50;;;5.40;99.90;;;;;;5039483;28;20213;-84
2022/03/19 02:08:28;;;;;;;13.97;4.00;;;5.60;99.90;;;;;;4998046;28;20270;-84
2022/03/19 02:10:54;;;;;;;12.23;4.10;;;5.60;99.90;;;;;;5016068;28;20190;-83
2022/03/19 02:13:19;;;;;;;16.60;3.83;;;5.50;99.90;;;;;;5046514;28;20212;-84
2022/03/19 02:15:46;;;;;;;14.73;4.27;;;5.50;99.90;;;;;;5040639;28;20227;-81
2022/03/19 02:18:11;;;;;;;17.07;4.27;;;5.30;99.90;;;;;;5032351;28;20206;-82
2022/03/19 02:20:39;;;;;;;15.03;4.37;;;5.30;99.90;;;;;;5025903;28;20178;-84
2022/03/19 02:25:49;;;;;;;14.53;4.53;;;5.50;99.90;;;;;;5031107;28;20175;-84
2022/03/19 02:28:15;;;;;;;13.80;4.13;;;5.40;99.90;;;;;;5055363;28;20657;-84
2022/03/19 02:30:43;;;;;;;12.30;4.07;;;5.30;99.90;;;;;;5040034;28;20177;-84
2022/03/19 02:33:10;;;;;;;12.23;3.70;;;5.20;99.90;;;;;;5040034;28;20693;-84
2022/03/19 02:35:36;;;;;;;10.60;4.33;;;5.10;99.90;;;;;;5040159;28;20181;-84
2022/03/19 02:38:01;;;;;;;14.03;4.03;;;5.10;99.90;;;;;;5049088;28;20209;-84
2022/03/19 02:40:27;;;;;;;10.83;4.13;;;5.10;99.90;;;;;;5055046;28;20189;-84
2022/03/19 02:42:55;;;;;;;13.63;4.60;;;5.00;99.90;;;;;;5054873;28;20250;-83
2022/03/19 02:45:22;;;;;;;11.67;4.07;;;5.10;99.90;;;;;;5045902;28;20288;-83
2022/03/19 02:47:58;;;;;;;13.47;4.37;;;5.00;99.90;;;;;;5054051;28;20181;-84
2022/03/19 02:50:31;;;;;;;13.13;4.20;;;4.90;99.90;;;;;;5045941;28;20174;-84
2022/03/19 02:52:58;;;;;;;11.03;4.07;;;5.00;99.90;;;;;;5039095;28;20206;-83
2022/03/19 02:55:25;;;;;;;14.43;3.73;;;4.90;99.90;;;;;;5041864;28;20201;-84
2022/03/19 02:57:51;;;;;;;13.50;3.90;;;4.90;99.90;;;;;;5039366;28;20170;-84
2022/03/19 03:00:18;;;;;;;12.37;4.90;;;5.00;99.90;;;;;;5010519;28;20174;-84
2022/03/19 03:02:44;;;;;;;12.57;4.40;;;5.00;99.90;;;;;;5019413;28;20201;-84
2022/03/19 03:05:12;;;;;;;13.77;4.03;;;4.90;99.90;;;;;;5018756;28;20181;-83
2022/03/19 03:07:38;;;;;;;10.50;4.23;;;4.80;99.90;;;;;;5022547;28;20194;-84
2022/03/19 03:10:05;;;;;;;13.17;4.20;;;4.90;99.90;;;;;;5034531;28;20241;-84
2022/03/19 03:12:32;;;;;;;15.40;4.17;;;4.90;99.90;;;;;;5025340;28;20177;-84
2022/03/19 03:14:58;;;;;;;15.93;4.43;;;4.80;99.90;;;;;;5039148;28;20173;-84
2022/03/19 03:17:24;;;;;;;14.00;4.33;;;4.80;99.90;;;;;;5020784;28;20169;-84
2022/03/19 03:19:51;;;;;;;15.47;4.47;;;4.80;99.90;;;;;;5010709;28;20669;-84
2022/03/19 03:22:20;;;;;;;12.27;3.57;;;4.70;99.90;;;;;;5019152;28;20169;-84
2022/03/19 03:24:46;;;;;;;12.37;3.67;;;4.70;99.90;;;;;;5016371;28;20198;-84
2022/03/19 03:27:12;;;;;;;19.70;4.70;;;4.70;99.90;;;;;;5035692;28;20180;-83
2022/03/19 03:29:38;;;;;;;8.07;3.67;;;4.80;99.90;;;;;;5045610;28;20177;-84
2022/03/19 03:32:04;;;;;;;10.10;3.80;;;4.70;99.90;;;;;;5029291;28;20208;-84
2022/03/19 03:34:30;;;;;;;11.67;3.93;;;4.80;99.90;;;;;;5044516;28;20204;-85
2022/03/19 03:36:56;;;;;;;13.80;3.83;;;4.70;99.90;;;;;;5025578;28;20278;-82
2022/03/19 03:39:21;;;;;;;12.00;3.80;;;4.80;99.90;;;;;;5019082;28;20224;-82
2022/03/19 03:41:47;;;;;;;16.60;3.93;;;4.80;99.90;;;;;;5017209;28;20190;-83
2022/03/19 03:44:13;;;;;;;10.97;3.83;;;4.80;99.90;;;;;;5015694;28;20214;-83
2022/03/19 03:46:39;;;;;;;18.30;4.30;;;4.70;99.90;;;;;;5015388;28;20166;-82
2022/03/19 03:49:05;;;;;;;12.07;4.03;;;4.70;99.90;;;;;;5041722;28;20186;-86
2022/03/19 03:51:31;;;;;;;12.87;4.00;;;4.70;99.90;;;;;;5037528;28;20163;-82
2022/03/19 03:53:57;;;;;;;13.13;4.03;;;4.60;99.90;;;;;;5014770;28;20189;-83
2022/03/19 03:56:23;;;;;;;11.43;3.47;;;4.60;99.90;;;;;;5036976;28;20261;-82
2022/03/19 03:58:49;;;;;;;12.13;3.23;;;4.70;99.90;;;;;;5015615;28;20209;-82
2022/03/19 04:01:16;;;;;;;12.40;3.73;;;4.70;99.90;;;;;;5012989;28;20183;-83
2022/03/19 04:03:42;;;;;;;10.37;4.03;;;4.70;99.90;;;;;;5015631;28;20224;-83
2022/03/19 04:06:08;;;;;;;12.03;3.30;;;4.70;99.90;;;;;;5034993;28;20182;-83
2022/03/19 04:08:34;;;;;;;12.93;3.07;;;4.70;99.90;;;;;;5037030;28;20201;-83
2022/03/19 04:10:59;;;;;;;15.37;3.50;;;4.80;99.90;;;;;;5040695;28;20205;-84
2022/03/19 04:13:25;;;;;;;10.37;3.50;;;4.80;99.90;;;;;;5040760;28;20202;-82
2022/03/19 04:15:51;;;;;;;12.27;3.17;;;4.90;99.90;;;;;;5010058;28;20200;-83
2022/03/19 04:18:17;;;;;;;10.23;3.30;;;4.80;99.90;;;;;;5029629;28;20208;-82
2022/03/19 04:20:43;;;;;;;13.83;3.17;;;4.80;99.90;;;;;;5043423;28;20241;-82
2022/03/19 04:23:09;;;;;;;9.90;3.87;;;4.70;99.90;;;;;;5029801;28;20190;-82
2022/03/19 04:25:35;;;;;;;18.67;4.00;;;4.70;99.90;;;;;;5032191;28;20174;-84
2022/03/19 04:28:01;;;;;;;11.63;3.67;;;4.70;99.90;;;;;;5014835;28;20273;-81
2022/03/19 04:30:28;;;;;;;11.33;3.30;;;4.90;99.90;;;;;;5045278;28;20573;-81
2022/03/19 04:33:00;;;;;;;14.93;3.60;;;4.90;99.90;;;;;;5043032;28;20205;-82
2022/03/19 04:38:19;;;;;;;11.90;3.70;;;4.80;99.90;;;;;;5026774;28;20194;-82
2022/03/19 04:40:47;;;;;;;11.57;3.73;;;4.70;99.90;;;;;;5037820;28;20181;-85
2022/03/19 04:43:13;;;;;;;9.97;3.80;;;4.80;99.90;;;;;;5013682;28;20276;-82
2022/03/19 04:45:40;;;;;;;8.17;3.40;;;4.80;99.90;;;;;;5013710;28;20192;-83
2022/03/19 04:48:06;;;;;;;12.57;3.50;;;4.60;99.90;;;;;;5034302;28;20189;-84
2022/03/19 04:50:39;;;;;;;16.63;4.10;;;4.60;99.90;;;;;;5034107;28;20174;-82
2022/03/19 04:53:06;;;;;;;10.87;3.63;;;4.60;99.90;;;;;;5014295;28;20209;-84
2022/03/19 04:55:33;;;;;;;8.93;3.60;;;4.60;99.90;;;;;;5014840;28;20178;-83
2022/03/19 04:57:58;;;;;;;11.80;3.60;;;4.60;99.90;;;;;;5041330;28;20715;-82
2022/03/19 05:00:25;;;;;;;12.70;3.37;;;4.50;99.90;;;;;;5014286;28;20220;-83
2022/03/19 05:02:50;;;;;;;10.63;3.30;;;4.40;99.90;;;;;;5041113;28;20568;-83
2022/03/19 05:05:17;;;;;;;17.27;3.63;;;4.40;99.90;;;;;;5040748;28;20667;-85
2022/03/19 05:07:42;;;;;;;11.50;3.10;;;4.40;99.90;;;;;;5040138;28;20228;-82
2022/03/19 05:12:54;;;;;;;8.67;3.47;;;4.50;99.90;;;;;;5055581;28;20190;-84
2022/03/19 05:15:21;;;;;;;14.33;3.43;;;4.50;99.90;;;;;;5038874;28;20193;-83
2022/03/19 05:17:46;;;;;;;11.93;2.90;;;4.30;99.90;;;;;;5013148;28;20178;-82
2022/03/19 05:20:14;;;;;;;11.43;3.43;;;4.10;99.90;;;;;;5044291;28;20174;-81
2022/03/19 05:22:40;;;;;;;12.30;3.67;;;4.00;99.90;;;;;;5018388;28;20166;-81
2022/03/19 05:25:07;;;;;;;13.07;3.43;;;4.20;99.90;;;;;;5018347;28;20174;-84
2022/03/19 05:27:33;;;;;;;14.60;3.83;;;4.00;99.90;;;;;;5036946;28;20182;-82
2022/03/19 05:29:59;;;;;;;14.37;3.20;;;3.90;99.90;;;;;;5042614;28;20193;-81
2022/03/19 05:32:26;;;;;;;15.63;3.30;;;3.80;99.90;;;;;;5018527;28;20212;-82
2022/03/19 05:34:54;;;;;;;14.53;3.73;;;4.00;99.90;;;;;;5011112;28;20282;-83
2022/03/19 05:37:21;;;;;;;10.40;3.37;;;4.10;99.90;;;;;;5018399;28;20193;-85
2022/03/19 05:39:47;;;;;;;13.97;3.13;;;4.00;99.90;;;;;;5042537;28;20205;-81
2022/03/19 05:42:12;;;;;;;12.43;3.40;;;3.90;99.90;;;;;;5043135;28;20204;-83
2022/03/19 05:44:38;;;;;;;10.50;3.30;;;3.90;99.90;;;;;;5045893;28;20277;-83
2022/03/19 05:47:05;;;;;;;10.93;3.60;;;3.90;99.90;;;;;;5047589;28;20189;-84
2022/03/19 05:49:30;;;;;;;12.20;3.10;;;3.80;99.90;;;;;;5020018;28;20180;-82
2022/03/19 05:51:57;;;;;;;12.83;3.43;;;3.80;99.90;;;;;;5023601;28;20166;-85
2022/03/19 05:54:24;;;;;;;14.53;3.20;;;3.90;99.90;;;;;;5049544;28;20206;-84
2022/03/19 05:56:52;;;;;;;9.33;3.03;;;3.80;99.90;;;;;;5048729;28;20170;-84
2022/03/19 05:59:19;;;;;;;9.87;3.13;;;3.80;99.90;;;;;;5047160;28;20272;-82
2022/03/19 06:01:45;;;;;;;12.50;2.93;;;3.90;99.90;;;;;;5024367;28;20170;-84
2022/03/19 06:04:11;;;;;;;12.03;3.10;;;3.80;99.90;;;;;;5021819;28;20209;-82
2022/03/19 06:06:38;;;;;;;8.27;2.93;;;3.90;99.90;;;;;;5045738;28;20320;-82
2022/03/19 06:09:04;;;;;;;14.07;4.17;;;3.90;99.90;;;;;;5042553;28;20224;-82
2022/03/19 06:11:31;;;;;;;11.37;3.13;;;3.90;99.90;;;;;;5043082;28;20181;-81
2022/03/19 06:13:57;;;;;;;9.53;2.73;;;3.90;99.90;;;;;;5018297;28;20193;-83
2022/03/19 06:16:23;;;;;;;9.03;2.80;;;3.80;99.90;;;;;;5018595;28;20178;-85
2022/03/19 06:18:52;;;;;;;14.23;3.30;;;3.80;99.90;;;;;;5018683;28;20210;-81
2022/03/19 06:21:19;;;;;;;12.37;3.30;;;3.80;99.90;;;;;;5019092;28;20170;-82
2022/03/19 06:23:46;;;;;;;12.50;3.33;;;3.90;99.90;;;;;;5043766;28;20202;-82
2022/03/19 06:26:14;;;;;;;10.07;2.73;;;3.90;99.90;;;;;;5038295;28;20168;-82
2022/03/19 06:28:40;;;;;;;12.73;3.10;;;3.90;99.90;;;;;;5017878;28;20175;-81
2022/03/19 06:31:07;;;;;;;10.40;3.27;;;4.00;99.90;;;;;;5020081;28;20166;-82
2022/03/19 06:33:33;;;;;;;11.43;3.17;;;4.10;99.90;;;;;;5022563;28;20202;-85
2022/03/19 06:38:45;;;;;;;9.00;2.90;;;4.10;99.90;;;;;;5038188;28;20197;-85
2022/03/19 06:41:12;;;;;;;12.33;2.80;;;4.10;99.90;;;;;;5021709;28;20185;-84
2022/03/19 06:43:37;;;;;;;12.53;3.00;;;4.20;99.90;;;;;;5022237;28;20182;-84
2022/03/19 06:46:04;;;;;;;14.47;3.17;;;4.30;99.90;;;;;;5021536;28;20181;-82
2022/03/19 06:48:29;;;;;;;10.17;3.13;;;4.20;99.90;;;;;;5021687;28;20166;-84
2022/03/19 06:50:55;;;;;;;10.30;2.67;;;4.30;99.90;;;;;;5021487;28;20192;-83
2022/03/19 06:53:22;;;;;;;9.90;2.67;;;4.50;99.90;;;;;;5020986;28;20205;-82
2022/03/19 06:55:48;;;;;;;9.27;2.67;;;4.60;99.90;;;;;;5021448;28;20166;-82
2022/03/19 06:58:14;;;;;;;10.77;3.00;;;4.50;99.90;;;;;;5015569;28;20221;-86
2022/03/19 07:00:42;;;;;;;9.17;2.93;;;4.60;99.90;;;;;;5029778;28;20181;-83
2022/03/19 07:03:08;;;;;;;11.30;2.97;;;4.70;99.90;;;;;;5034310;28;20201;-85
2022/03/19 07:05:37;;;;;;;11.97;3.00;;;5.00;99.90;;;;;;5030810;28;20189;-82
2022/03/19 07:08:07;;;;;;;10.77;2.57;;;5.10;99.90;;;;;;5036501;28;20197;-83
2022/03/19 07:11:15;;;;;;;12.80;3.03;;;5.50;99.90;;;;;;5029781;28;20560;-80
2022/03/19 07:17:12;;;;;;;9.43;2.70;;;6.20;99.90;;;;;;5042990;28;20201;-82
2022/03/19 07:19:37;;;;;;;7.40;2.93;;;6.40;99.90;;;;;;5029968;28;20216;-85
2022/03/19 07:22:04;;;;;;;7.60;2.80;;;6.30;99.90;;;;;;5046436;28;20182;-84
2022/03/19 07:24:29;;;;;;;11.70;2.83;;;6.00;99.90;;;;;;5032187;28;20196;-85
2022/03/19 07:26:55;;;;;;;9.07;3.07;;;5.70;99.90;;;;;;5026221;28;20628;-81
2022/03/19 07:29:21;;;;;;;10.67;3.03;;;5.60;99.90;;;;;;5024894;28;20178;-82
2022/03/19 07:31:49;;;;;;;11.00;3.17;;;5.60;99.90;;;;;;5025966;28;20178;-82
2022/03/19 07:34:15;;;;;;;10.67;3.00;;;5.60;99.90;;;;;;5023596;28;20255;-83
2022/03/19 07:36:43;;;;;;;10.83;2.67;;;5.50;99.90;;;;;;5016825;28;20186;-77
2022/03/19 07:39:09;;;;;;;12.90;2.60;;;5.40;99.90;;;;;;5019004;28;20209;-81
2022/03/19 07:41:48;;;;;;;13.33;3.00;;;5.30;99.90;;;;;;5018456;28;20183;-80
2022/03/19 07:44:16;;;;;;;9.87;3.03;;;5.40;99.90;;;;;;5018533;28;20206;-80
2022/03/19 07:46:42;;;;;;;9.17;2.63;;;5.40;99.90;;;;;;5017406;28;20174;-81
2022/03/19 07:49:08;;;;;;;11.87;3.33;;;5.50;99.90;;;;;;5021525;28;20190;-80
2022/03/19 07:51:34;;;;;;;11.90;2.93;;;5.50;99.90;;;;;;5020810;28;20172;-81
2022/03/19 07:54:01;;;;;;;12.53;2.87;;;5.60;99.90;;;;;;5018988;28;20593;-80
2022/03/19 07:56:26;;;;;;;12.40;3.07;;;5.60;99.90;;;;;;5021955;28;20178;-81
2022/03/19 07:58:52;;;;;;;13.87;2.93;;;5.60;99.90;;;;;;5031131;28;20228;-81
2022/03/19 08:01:19;;;;;;;9.63;2.97;;;5.70;99.90;;;;;;5019091;28;20181;-79
2022/03/19 08:03:45;;;;;;;9.67;2.70;;;5.90;99.90;;;;;;5011688;28;20312;-80
2022/03/19 08:06:11;;;;;;;12.70;3.40;;;6.00;99.90;;;;;;5022173;28;20222;-80
2022/03/19 08:08:37;;;;;;;10.33;2.80;;;6.00;99.90;;;;;;5024029;28;20186;-81
2022/03/19 08:11:04;;;;;;;11.27;2.67;;;5.90;99.90;;;;;;5024617;28;20187;-81
2022/03/19 08:13:30;;;;;;;11.67;2.90;;;6.00;99.90;;;;;;5019604;28;20243;-81
2022/03/19 08:15:56;;;;;;;10.00;2.70;;;6.10;99.90;;;;;;5018092;28;20179;-80
2022/03/19 08:18:23;;;;;;;8.57;2.53;;;6.10;99.90;;;;;;5016764;28;20206;-80
2022/03/19 08:20:49;;;;;;;7.33;2.60;;;6.20;99.90;;;;;;5019810;28;20176;-81
2022/03/19 08:23:20;;;;;;;8.73;2.40;;;6.20;99.90;;;;;;5011817;28;20278;-79
2022/03/19 08:25:46;;;;;;;8.60;2.63;;;6.20;99.90;;;;;;5014285;28;20182;-79
2022/03/19 08:28:12;;;;;;;11.03;2.70;;;6.30;99.90;;;;;;5015620;28;20175;-79
2022/03/19 08:30:37;;;;;;;9.13;2.20;;;6.50;99.90;;;;;;5016129;28;20194;-79
2022/03/19 08:33:03;;;;;;;10.87;3.00;;;6.50;99.90;;;;;;5010779;28;20203;-79
2022/03/19 08:35:29;;;;;;;8.63;2.50;;;6.60;99.90;;;;;;5003247;28;20192;-77
2022/03/19 08:40:15;;;;;;;5.07;2.20;;;6.60;99.90;;;;;;5003026;28;20188;-77
2022/03/19 08:40:40;;;;;;;12.77;2.80;;;6.50;99.90;;;;;;5019841;28;20182;-77
2022/03/19 08:43:06;;;;;;;9.63;2.53;;;6.70;99.90;;;;;;5006991;28;20183;-77
2022/03/19 08:45:32;;;;;;;8.07;2.40;;;6.80;99.90;;;;;;5028601;28;20194;-77
2022/03/19 08:47:57;;;;;;;10.03;2.50;;;6.90;99.90;;;;;;5003137;28;20182;-77
2022/03/19 08:50:26;;;;;;;7.50;2.13;;;7.00;99.90;;;;;;5011828;28;20177;-78
2022/03/19 08:52:52;;;;;;;8.00;2.40;;;7.00;99.90;;;;;;5018539;28;20194;-78
2022/03/19 08:55:19;;;;;;;8.83;3.03;;;7.10;99.90;;;;;;5011479;28;20176;-77
2022/03/19 08:57:45;;;;;;;9.13;2.47;;;7.20;99.90;;;;;;5015516;28;20636;-77
2022/03/19 09:00:13;;;;;;;9.70;2.80;;;7.20;99.90;;;;;;5015460;28;20193;-77
2022/03/19 09:02:39;;;;;;;8.13;2.77;;;7.30;99.90;;;;;;5018227;28;20177;-77
2022/03/19 09:05:05;;;;;;;8.17;2.47;;;7.30;99.90;;;;;;5016549;28;20195;-77
2022/03/19 09:07:30;;;;;;;8.63;2.27;;;7.30;99.90;;;;;;5015131;28;20169;-77
2022/03/19 09:09:56;;;;;;;8.63;2.80;;;7.40;99.90;;;;;;5021824;28;20198;-78
2022/03/19 09:12:23;;;;;;;8.33;2.43;;;7.40;99.90;;;;;;5020478;28;20194;-78
2022/03/19 09:14:49;;;;;;;11.33;2.30;;;7.50;99.90;;;;;;5032975;28;20196;-83
2022/03/19 09:17:15;;;;;;;8.13;2.57;;;7.60;99.90;;;;;;5038014;28;20161;-82
2022/03/19 09:19:41;;;;;;;8.97;2.30;;;7.80;99.90;;;;;;5034355;28;20240;-83
2022/03/19 09:22:07;;;;;;;9.13;2.20;;;7.80;99.90;;;;;;5039011;28;20237;-83
2022/03/19 09:24:33;;;;;;;7.87;2.33;;;7.90;99.90;;;;;;5029591;28;20193;-83
2022/03/19 09:26:59;;;;;;;9.93;2.60;;;8.00;99.90;;;;;;5033739;28;20206;-76
2022/03/19 09:29:24;;;;;;;4.60;1.80;;;8.00;99.90;;;;;;5027680;28;20173;-82
2022/03/19 09:31:52;;;;;;;9.20;2.47;;;8.10;99.90;;;;;;5022996;28;20174;-78
2022/03/19 09:34:18;;;;;;;6.83;2.20;;;8.20;99.90;;;;;;5017392;28;20289;-78
2022/03/19 09:36:46;;;;;;;8.10;2.40;;;8.30;99.90;;;;;;5009429;28;20605;-78
2022/03/19 09:39:14;;;;;;;8.67;2.47;;;8.30;99.90;;;;;;5006529;28;20193;-78
2022/03/19 09:41:42;;;;;;;7.37;1.77;;;8.40;99.90;;;;;;5013529;28;20224;-78
2022/03/19 09:44:08;;;;;;;7.57;2.10;;;8.60;99.90;;;;;;5012307;28;20198;-78
2022/03/19 09:46:35;;;;;;;5.43;1.80;;;8.60;99.90;;;;;;5009705;28;20174;-78
2022/03/19 09:49:00;;;;;;;6.13;1.73;;;8.80;99.90;;;;;;5025997;28;20181;-78
2022/03/19 09:51:27;;;;;;;5.00;1.63;;;8.90;99.90;;;;;;5017819;28;20724;-79
2022/03/19 09:53:55;;;;;;;4.73;1.90;;;9.00;99.80;;;;;;5012275;28;20673;-80
2022/03/19 09:56:21;;;;;;;6.30;2.27;;;9.20;99.60;;;;;;5037718;28;20653;-80
2022/03/19 09:58:48;;;;;;;8.27;2.10;;;9.30;99.70;;;;;;5015863;28;20201;-78
2022/03/19 10:01:19;;;;;;;6.53;2.00;;;9.40;99.10;;;;;;5020263;28;20219;-78
2022/03/19 10:03:59;;;;;;;6.13;1.97;;;9.50;99.10;;;;;;5007440;28;20624;-78
2022/03/19 10:09:17;;;;;;;6.37;1.90;;;9.50;97.80;;;;;;5026874;28;20249;-78
2022/03/19 10:11:48;;;;;;;9.17;1.90;;;9.50;97.90;;;;;;5010761;28;20191;-79
2022/03/19 10:14:20;;;;;;;5.37;1.70;;;9.60;97.40;;;;;;5013445;28;20201;-78
2022/03/19 10:16:51;;;;;;;5.03;1.80;;;9.70;97.10;;;;;;5014368;28;20208;-78
2022/03/19 10:19:17;;;;;;;4.13;1.50;;;9.90;97.10;;;;;;5025552;28;20197;-78
2022/03/19 10:21:44;;;;;;;6.47;1.57;;;10.10;96.20;;;;;;5012809;28;20526;-78
2022/03/19 10:24:39;;;;;;;6.50;1.80;;;10.40;95.60;;;;;;5005731;28;20194;-78
2022/03/19 10:27:18;;;;;;;5.60;1.83;;;10.70;95.00;;;;;;4987715;28;20192;-78
2022/03/19 10:29:48;;;;;;;4.60;1.60;;;10.90;94.20;;;;;;5012748;28;20583;-78
2022/03/19 10:32:13;;;;;;;3.47;1.30;;;11.30;93.00;;;;;;5016267;28;20264;-78
2022/03/19 10:34:40;;;;;;;4.40;1.67;;;11.50;92.90;;;;;;5006944;28;20221;-79
2022/03/19 10:37:06;;;;;;;3.83;1.40;;;11.70;90.90;;;;;;5009041;28;20224;-79
2022/03/19 10:39:31;;;;;;;4.60;1.70;;;11.90;91.10;;;;;;5008052;28;20213;-79
2022/03/19 10:41:58;;;;;;;4.40;1.33;;;12.20;90.20;;;;;;5018194;28;20173;-80
2022/03/19 10:44:26;;;;;;;2.83;1.30;;;12.50;87.00;;;;;;5021552;28;20212;-80
2022/03/19 10:46:57;;;;;;;5.67;1.80;;;12.70;85.70;;;;;;5021182;28;20162;-79
2022/03/19 10:49:30;;;;;;;4.83;1.70;;;12.90;81.80;;;;;;5017630;28;20212;-80
2022/03/19 10:51:58;;;;;;;4.07;1.60;;;13.00;80.20;;;;;;5012112;28;20182;-79
2022/03/19 10:54:24;;;;;;;4.80;1.43;;;13.10;77.80;;;;;;5022371;28;20205;-80
2022/03/19 10:56:51;;;;;;;3.37;1.57;;;13.10;77.10;;;;;;5021128;28;20201;-78
2022/03/19 10:59:18;;;;;;;3.83;1.40;;;13.20;77.80;;;;;;5012026;28;20199;-79
2022/03/19 11:01:46;;;;;;;3.77;1.30;;;13.30;73.80;;;;;;5008434;28;20552;-78
2022/03/19 11:04:12;;;;;;;6.30;1.47;;;13.10;73.70;;;;;;5018372;28;20665;-78
2022/03/19 11:06:41;;;;;;;3.93;1.70;;;13.40;73.50;;;;;;5003290;28;20273;-79
2022/03/19 11:09:10;;;;;;;4.10;1.80;;;14.10;70.30;;;;;;5011130;28;20209;-80
2022/03/19 11:12:00;;;;;;;3.87;1.70;;;14.80;65.40;;;;;;5012007;28;20193;-79
2022/03/19 11:14:30;;;;;;;4.83;1.63;;;15.40;63.50;;;;;;5011722;28;20194;-79
2022/03/19 11:17:25;;;;;;;5.57;1.67;;;16.50;60.90;;;;;;5017720;28;20209;-80
2022/03/19 11:20:14;;;;;;;3.63;1.50;;;17.30;58.00;;;;;;5012776;28;20197;-79
2022/03/19 11:22:53;;;;;;;3.67;1.40;;;18.00;57.10;;;;;;4999952;28;20615;-79
2022/03/19 11:25:31;;;;;;;4.47;1.60;;;17.40;57.00;;;;;;5005333;28;20205;-79
2022/03/19 11:28:09;;;;;;;3.43;1.73;;;17.40;55.00;;;;;;5002680;28;20178;-79
2022/03/19 11:30:36;;;;;;;4.77;1.57;;;17.10;55.80;;;;;;5012946;28;20176;-80
2022/03/19 11:33:16;;;;;;;4.97;2.10;;;16.70;54.00;;;;;;5014572;28;20201;-80
2022/03/19 11:35:54;;;;;;;4.80;1.80;;;16.30;55.60;;;;;;5027090;28;20188;-80
2022/03/19 11:38:22;;;;;;;3.23;1.40;;;16.10;55.20;;;;;;5009638;28;20240;-79
2022/03/19 11:40:54;;;;;;;4.27;1.60;;;15.80;53.90;;;;;;5028949;28;20174;-80
2022/03/19 11:43:33;;;;;;;6.17;1.87;;;15.90;54.30;;;;;;5012619;28;20194;-79
2022/03/19 11:46:03;;;;;;;4.80;1.60;;;16.10;54.40;;;;;;5023277;28;20200;-79
2022/03/19 11:48:35;;;;;;;4.67;1.70;;;16.40;54.80;;;;;;5019313;28;20182;-80
2022/03/19 11:51:25;;;;;;;3.37;1.40;;;16.60;54.20;;;;;;5018568;28;20258;-78
2022/03/19 11:53:50;;;;;;;4.57;1.70;;;16.50;53.40;;;;;;5035765;28;20260;-80
2022/03/19 11:56:19;;;;;;;5.20;2.00;;;16.30;53.40;;;;;;5015665;28;20204;-79
2022/03/19 11:58:48;;;;;;;3.47;1.73;;;15.90;54.70;;;;;;5018871;28;20673;-79
2022/03/19 12:01:14;;;;;;;4.33;1.60;;;15.90;56.40;;;;;;5023479;28;20178;-79
2022/03/19 12:04:06;;;;;;;5.37;1.80;;;15.80;55.40;;;;;;5017334;28;20201;-79
2022/03/19 12:06:37;;;;;;;4.43;1.80;;;14.80;58.00;;;;;;5018133;28;20174;-81
2022/03/19 12:09:02;;;;;;;3.53;1.70;;;14.00;62.10;;;;;;5013534;28;20187;-79
2022/03/19 12:11:28;;;;;;;4.40;1.60;;;13.60;61.70;;;;;;5015443;28;20190;-80
2022/03/19 12:13:56;;;;;;;4.67;2.10;;;12.80;65.60;;;;;;5014186;28;20202;-78
2022/03/19 12:16:45;;;;;;;3.40;1.70;;;12.30;67.20;;;;;;5019978;28;20637;-79
2022/03/19 12:19:11;;;;;;;6.43;1.40;;;11.90;70.00;;;;;;5018315;28;20193;-80
2022/03/19 12:21:43;;;;;;;6.50;1.93;;;11.70;70.70;;;;;;5012754;28;20204;-79
2022/03/19 12:24:27;;;;;;;6.17;2.00;;;11.60;70.70;;;;;;5011146;28;20265;-79
2022/03/19 12:26:55;;;;;;;5.20;1.90;;;11.60;72.20;;;;;;5012028;28;20186;-80
2022/03/19 12:29:21;;;;;;;4.43;1.70;;;11.70;72.50;;;;;;5015447;28;20647;-79
2022/03/19 12:31:49;;;;;;;3.83;1.70;;;11.50;73.00;;;;;;5020183;28;20177;-79
2022/03/19 12:34:22;;;;;;;8.37;1.90;;;11.30;74.00;;;;;;5016341;28;20197;-80
2022/03/19 12:36:56;;;;;;;7.63;2.07;;;11.30;73.60;;;;;;5035075;28;20208;-80
2022/03/19 12:39:22;;;;;;;5.33;1.90;;;11.30;73.70;;;;;;5029286;28;20199;-79
2022/03/19 12:41:49;;;;;;;5.70;2.00;;;11.20;72.90;;;;;;4997390;28;20280;-79
2022/03/19 12:44:24;;;;;;;7.03;1.70;;;11.20;72.50;;;;;;5016884;28;20236;-79
2022/03/19 12:46:56;;;;;;;3.43;1.90;;;11.10;71.20;;;;;;5026548;28;20181;-80
2022/03/19 12:49:26;;;;;;;3.67;1.80;;;10.90;73.00;;;;;;5025286;28;20349;-80
2022/03/19 12:51:52;;;;;;;4.47;1.90;;;10.90;74.20;;;;;;5031430;28;20209;-79
2022/03/19 12:54:25;;;;;;;6.67;1.90;;;10.90;74.90;;;;;;5016932;28;20203;-79
2022/03/19 12:56:53;;;;;;;3.83;2.10;;;11.00;77.10;;;;;;5019111;28;20176;-82
2022/03/19 12:59:24;;;;;;;5.77;1.77;;;11.30;78.40;;;;;;5025279;28;20283;-81
2022/03/19 13:01:51;;;;;;;6.80;2.40;;;11.30;80.50;;;;;;5016929;28;20174;-79
2022/03/19 13:04:31;;;;;;;3.80;1.70;;;11.60;80.60;;;;;;5017604;28;20190;-79
2022/03/19 13:06:59;;;;;;;5.80;2.03;;;11.60;79.30;;;;;;5018502;28;20196;-80
2022/03/19 13:09:36;;;;;;;2.70;1.93;;;11.70;80.20;;;;;;5020115;28;20194;-80
2022/03/19 13:12:04;;;;;;;3.60;1.90;;;11.80;77.80;;;;;;5032683;28;20216;-81
2022/03/19 13:14:34;;;;;;;3.87;1.73;;;11.70;78.60;;;;;;5019776;28;20219;-81
2022/03/19 13:17:00;;;;;;;3.87;1.80;;;11.90;77.70;;;;;;5022842;28;20182;-80